Station: Cunnamulla

  Atmospheric Gas Attenuation - ITU Rec 676-11   --------------- db/100km ---------------
Date Time Temp RH % AH g/m3 Dew Point Wind Direction Speed kph Gust kph Barometer mB Rainfall Since 9am 24GHz 47GHz 76GHz 122GHz 134GHz 241GHz
26 09:00 25.3 81 18.96 21.9 7 1008.9 2 40.9 39.6 76.4 202.2 222.6 773.2
25 09:00 27.5 44 11.64 14.3 7 1009.1 0 25.3 26.5 44.1 116.2 117.6 407.2
23 09:00 27.2 32 8.33 9.4 22 1010.3 2 18.4 21.9 32.7 85.8 80.0 275.5
22 09:00 33.8 32 11.89 15.1 7 1007.5 0 25.4 25.0 41.6 109.7 111.3 386.1
21 09:00 31.5 42 13.81 17.1 7 1009 0 29.5 28.5 49.8 131.5 137.5 477.4
20 09:00 32.1 40 13.58 16.9 4 1011.3 0 29.0 28.0 48.7 128.5 133.9 464.9
19 09:00 29.3 52 15.18 18.5 7 1013.6 0 32.5 31.6 56.8 150.1 159.5 554.0
18 09:00 27.2 50 13.01 16.1 13 1015.7 0 28.1 28.9 49.8 131.2 135.7 470.5
17 09:00 27 51 13.13 16.2 13 1015.6 0 28.4 29.1 50.4 132.8 137.6 477.0
16 09:00 26.2 51 12.56 15.4 7 1014.4 0 27.3 28.5 48.6 128.1 131.5 455.9
15 09:00 26 52 12.66 15.5 13 1011.6 0 27.5 28.6 49.0 129.1 132.9 460.5
14 09:00 25.5 58 13.73 16.8 7 1009.9 0.1 29.8 30.4 53.4 141.1 147.5 511.6
13 09:00 28.7 87 24.59 26.3 13 1007 13 52.4 48.8 99.9 264.8 300.4 1043.9
12 09:00 29.5 61 18.01 21.2 13 1007.6 0 38.5 36.0 68.1 180.2 196.8 683.9
11 09:00 28.3 60 16.59 20 7 1009.4 0 35.6 34.1 63.2 167.0 180.2 626.0
10 09:00 29.4 45 13.21 16.5 7 1007.9 0 28.4 28.2 48.8 128.8 133.6 463.6
09 09:00 29.5 42 12.4 15.5 13 1008.9 0 26.7 27.0 45.8 120.7 123.7 428.8
07 09:00 27.5 55 14.55 17.8 7 1007.8 0.4 31.4 31.0 55.3 146.0 154.2 535.3
06 09:00 23.3 91 19.03 21.8 22 1005.1 16 41.3 40.6 78.6 207.9 229.2 795.8
05 09:00 30.2 57 17.48 20.8 19 1005.3 2 37.3 34.7 65.1 172.2 187.3 651.2
04 09:00 30.2 52 15.94 19.4 26 1006.3 0 34.1 32.2 58.8 155.5 166.7 579.4
03 09:00 28.5 39 10.9 13.3 7 1009.1 0 23.7 25.1 40.9 107.7 107.4 371.7
02 09:00 24.2 81 17.82 20.7 7 1009.2 0.6 38.6 38.0 72.2 191.0 208.4 723.8
31 09:00 33.7 31 11.45 14.3 7 1009.2 0 24.5 24.5 40.2 106.0 106.7 369.9
30 09:00 32.2 36 12.29 15.6 4 1008.2 0 26.3 26.0 43.9 115.6 118.2 410.0
29 09:00 31.4 44 14.39 17.8 22 1008.4 0 30.7 29.4 52.0 137.4 144.7 502.7
27 09:00 34.7 37 14.41 17.9 9 1004.6 0 30.6 28.2 49.8 131.7 138.7 481.9
26 09:00 31.3 36 11.71 14.8 13 1003.4 0 25.2 25.3 42.1 111.0 112.4 389.6
25 09:00 30.9 36 11.46 14.2 17 1008.2 0 24.7 25.2 41.6 109.7 110.5 382.9
24 09:00 31.3 35 11.39 14.3 13 1011.3 0 24.5 25.1 41.3 108.8 109.4 379.2
23 09:00 29.6 48 14.25 17.7 4 1011.6 0 30.6 29.9 52.8 139.5 146.7 509.3
22 09:00 30.6 46 14.41 17.7 7 1010 0.8 30.8 29.7 52.7 139.2 146.7 509.3
21 09:00 32.5 40 13.87 17.2 13 1012.2 0 29.6 28.4 49.6 130.8 136.8 475.1
20 09:00 31.2 28 9.06 10.6 4 1015 0 19.7 22.1 33.7 88.4 84.1 290.5
19 09:00 29.5 26 7.68 8.1 4 1014.3 0 17.0 20.6 29.9 78.3 71.2 244.9
18 09:00 26.7 39 9.87 11.6 4 1013.6 0.6 21.6 24.3 38.3 100.7 98.1 338.9
17 09:00 25.4 20 4.71 0.9 7 1013.9 0 11.0 17.8 22.1 57.3 44.1 149.0
16 09:00 23.9 36 7.79 8.2 7 1012.5 0 17.4 22.0 32.3 84.6 77.3 265.9
15 09:00 33.4 33 12 15.2 2 1006.1 0 25.7 25.2 42.1 111.1 113.0 391.9
14 09:00 32.2 32 10.92 13.4 6 1011.4 0 23.5 24.2 39.3 103.3 102.9 356.6
13 09:00 31.7 30 9.97 12.4 4 1013.5 0 21.6 23.1 36.4 95.7 93.3 322.6
12 09:00 29.5 47 13.87 17 4 1012.7 0 29.8 29.4 51.5 135.9 142.2 493.5
11 09:00 28.3 51 14.1 17.4 7 1013.9 0 30.3 30.2 53.2 140.5 147.5 511.8
10 09:00 26 55 13.39 16.3 6 1015.7 0 29.0 29.9 52.0 137.2 142.7 495.0
09 09:00 24.5 62 13.88 16.8 22 1015.7 0.4 30.1 31.2 55.0 145.2 152.1 527.5
08 09:00 21.7 79 15.07 18 13 1015.6 0.1 32.9 34.3 62.3 164.4 174.8 606.3
07 09:00 24.1 72 15.75 18.8 13 1013.2 26 34.1 34.5 63.2 166.9 178.7 620.4
06 09:00 22 67 13 15.7 13 1012.2 0 28.5 30.5 52.9 139.6 144.6 500.9
05 09:00 29.5 59 17.42 20.7 4 1006.9 0 37.2 34.9 65.5 173.4 188.4 654.9
04 09:00 28 63 17.13 20.5 7 1005.7 1 36.8 35.0 65.5 173.2 187.9 652.9
03 09:00 28 65 17.68 20.8 7 1005.6 5 37.9 36.0 67.9 179.6 195.7 680.0
02 09:00 28.1 76 20.78 23.6 13 1007.9 11 44.4 41.7 82.0 217.1 241.7 840.0
01 09:00 31.9 56 18.81 22.1 22 1011.2 0 39.9 36.5 69.6 184.2 202.2 703.1
31 09:00 29.3 64 18.69 21.8 13 1011.8 0 39.9 37.4 71.5 189.1 207.6 721.5
30 09:00 27.2 74 19.26 22.2 7 1011.3 15 41.3 39.4 76.1 201.2 221.9 771.0
29 09:00 29.7 58 17.31 20.7 7 1009.4 0 37.0 34.8 65.0 172.0 186.8 649.1
28 09:00 32.5 46 15.95 19.4 7 1008.8 0 33.9 31.5 57.3 151.5 162.3 564.2
27 09:00 30.7 54 17.01 20.4 26 1012.1 0 36.2 34.0 63.1 166.9 180.6 627.8
26 09:00 28.7 62 17.52 20.9 7 1014 0 37.5 35.7 67.1 177.3 192.8 670.0
25 09:00 25.6 53 12.62 15.4 7 1015.2 0.4 27.4 28.8 49.2 129.7 133.4 462.4
24 09:00 22.7 63 12.73 15.4 7 1016 0.1 27.8 29.9 51.6 135.9 140.0 485.1
23 09:00 21.8 54 10.36 12.1 13 1016.5 0 22.9 26.5 42.7 112.3 110.7 382.4
22 09:00 21.7 91 17.36 20.2 7 1009.5 28 37.8 38.3 72.4 191.6 208.4 723.4
21 09:00 25.1 90 20.83 23.3 26 1007.6 0 44.9 43.3 85.6 226.5 252.4 876.8
20 09:00 30.6 25 7.83 8.6 7 1010.2 0 17.2 20.5 29.8 78.2 71.5 246.3
19 09:00 31.8 38 12.7 15.9 7 1010.1 0 27.2 26.8 45.6 120.3 123.8 429.5
18 09:00 35.7 27 11.08 14.2 4 1005.9 0 23.7 23.4 37.9 99.9 99.9 346.2
17 09:00 34.8 39 15.27 19 7 1004.8 0 32.3 29.5 52.9 139.9 148.8 517.4
16 09:00 31.7 43 14.29 17.6 7 1006.8 0 30.5 29.1 51.4 135.7 142.8 495.9
15 09:00 27.8 49 13.18 16.1 2 1008.5 0 28.5 28.7 49.7 131.1 136.0 471.9
14 09:00 27.6 36 9.58 11.3 22 1011.8 0 21.0 23.6 36.8 96.8 93.5 323.1
13 09:00 25.4 42 9.89 11.6 26 1016 0 21.7 24.7 39.1 102.8 100.1 345.9
12 09:00 25.5 46 10.89 13.2 26 1020.3 0 23.8 26.3 42.9 112.8 112.4 388.7
11 09:00 32 24 8.1 9 13 1014 0 17.7 20.6 30.3 79.4 73.3 252.6
10 09:00 30.8 14 4.43 0.4 7 1015.5 0 10.3 16.5 20.0 51.8 38.8 131.2
09 09:00 26.8 16 4.07 -0.9 7 1017.1 0 9.6 16.8 20.0 51.6 37.4 125.6
08 09:00 23.2 27 5.61 3.3 13 1016.5 0 12.9 19.4 25.5 66.4 54.6 185.8
07 09:00 27 32 8.24 9.1 7 1010.7 0.2 18.2 21.8 32.5 85.2 79.2 272.8
06 09:00 30.4 47 14.57 18 4 1007.4 0 31.2 30.0 53.3 140.9 148.8 516.7
05 09:00 37 31 13.6 17.4 26 1007.5 0 28.7 26.5 45.8 120.8 125.8 437.1
04 09:00 1013.1
03 09:00 31.2 24 7.77 8.5 7 1014.5 0 17.1 20.4 29.6 77.5 70.7 243.2
02 09:00 33.2 34 12.24 15.5 22 1013.7 0 26.2 25.9 43.4 114.4 116.7 404.8
01 09:00 40 21 10.73 13.7 22 1009.5 0 22.7 22.0 35.1 92.4 91.6 317.5
30 09:00 34 28 10.51 12.9 7 1009.5 0 22.6 23.1 37.0 97.3 96.1 332.9
29 09:00 35.7 21 8.61 10.4 26 1008.3 0 18.6 20.3 30.3 79.6 74.8 258.1
28 09:00 35 33 13.05 16.6 13 1011.7 0 27.7 26.4 45.2 119.1 123.1 427.3
27 09:00 35.5 32 12.99 16.5 7 1011.8 0 27.6 26.2 44.7 117.8 121.6 422.4
26 09:00 34.2 29 11 13.9 13 1008.9 0 23.6 23.7 38.5 101.3 101.1 350.4
24 09:00 29.7 42 12.53 15.7 7 1008.6 0 27.0 27.1 46.1 121.6 124.9 433.1
23 09:00 34.7 19 7.4 7.7 22 1009.4 0 16.2 19.1 27.2 71.0 63.9 219.8
22 09:00 35.7 19 7.79 8.6 13 1015.2 0 16.9 19.5 28.2 73.7 67.2 231.5
21 09:00 34.4 27 10.35 12.7 13 1017.2 0 22.2 23.1 36.6 96.2 94.5 327.3
20 09:00 32.9 29 10.27 12.8 13 1017 0 22.1 23.3 37.0 97.2 95.4 330.2
19 09:00 33.2 30 10.8 13.5 7 1015.8 0 23.2 23.9 38.6 101.5 100.7 348.9
18 09:00 28.7 16 4.52 0.3 13 1017.9 0 10.5 17.1 20.8 53.9 40.7 137.6
17 09:00 27.5 100 26.46 27.5 7 1018 0 56.5 54.1 112.4 297.7 340.0 1181.1
16 09:00 37.3 30 13.36 17 22 1011.9 0 28.2 26.2 45.0 118.6 123.1 427.6
15 09:00 33.7 27 9.98 12.1 7 1014.1 0 21.5 22.7 35.6 93.5 91.2 315.5
14 09:00 30.2 31 9.5 11.3 7 1011.2 0 20.7 22.8 35.4 93.0 89.7 309.8

Last Refresh: 27-Feb-2021 01:46:54

Most of the information presented on this site is sourced from the Bureau of Meteorology.  Copyright in all material sourced from the Bureau of Meteorology resides with the Commonwealth of Australia.